Aérodrome :
LOGIN :

S'inscrire | Disclaimer

   EN    FR    IT 

 










Légende :    VFR   VFR Marginal   IFR   IFR Intensif   IFR Très Intensif
Visi : 
Plafond : 
>= 8 km
>= 3000ft
5 à 8 km
1000 à 3000 ft
1500m à 5 km
500 à 1000 ft
800 à 1500m
200 à 500 ft
< 800m
< 200 ft
Symboles :   Orages  Brouillard  Fortes neiges  Fortes précipitations  Vent > 20 kt
SIGMETs :   Divers  Orages  Givrage  Turbulence  Onde Orograph.  Cendres Volcan.






- Altitude de l'aérodrome : 2265 ft
- Code IATA : CZL


DABC - Mohamed Boudiaf Int. Constantine

DERNIER METAR :
  • 231730Z 33004KT CAVOK 11/04 Q1031

METARs EXPIRÉS :
  • 231700Z 35007KT CAVOK 14/04 Q1031
  • 231630Z 01008KT CAVOK 15/04 Q1031
  • 231600Z 36010KT CAVOK 17/02 Q1030
  • 231530Z 36009KT CAVOK 18/03 Q1031
  • 231500Z 01007KT CAVOK 18/M01 Q1031

TAF TAF DABC
Valide du 23 à 18h jusqu'au 24 à 18h UTC


231700Z 2318/2418 34008KT CAVOK
BECMG 2319/2321 VRB02KT
BECMG 2408/2410 30006KT



MET'MAP, la Météo Aéronautique d'un coup d'oeil ! - Copyright ORBIFLY Décembre 2007 - Disclaimer

ORBIFLY MET'MAP TEAM :

Programmation & Développement : Alexandra Zaïnal
Sur une idée originale de : Baudouin d'Aumeries
Assistance à la programmation : Marc-Olivier Méhu
Soutien technique & logistique : Manuel Goepfert

Contact : metmap@orbifly.com




SOURCES & CREDITS :

   NOAA